Luang Phabang International Airport
VLLB : now visible

Airfield :











YOU CAN JOIN US ON...

 
LOGIN :

Register | Disclaimer

   EN    FR    IT 

 









Legend :    VFR   Marginal VFR   IFR   Intensive IFR   Very Intensive IFR
Visi :
Ceiling :
>= 8 km
>= 3000ft
5 to 8 km
1000 to 3000 ft
1500m to 5 km
500 to 1000 ft
800 to 1500m
200 to 500 ft
< 800m
< 200 ft
Symbols :   Thunderstorms  Fog  Heavy snow  Heavy precipitations  Wind > 20 kt






- Airport Elevation : 955 ft
- IATA code : LPQ


VLLB - Luang Phabang International

CURRENT METAR :
  • 250500Z 27002KT 9999 SCT020 SCT060 OVC080 28/24 Q1009 NOSIG

EXPIRED METARs :
  • 250300Z 27002KT 9999 SCT010 SCT060 BKN080 28/25 Q1010 NOSIG
  • 250200Z 00000KT 5000 BR BKN006 25/23 Q1009 NOSIG
  • 250100Z 18002KT 4000 RA OVC006 24/24 Q1009 NOSIG

TAF TAF VLLB
Valid from the 25 at 06:00 until the 26 at 06:00 UTC


250500Z 2506/2606 27004KT 9999 SCT010 BKN060 BKN080
VLVT FIR / Asia



MET'MAP, your aeronautical weather chart ! - Copyright ORBIFLY December 2007 - Disclaimer

ORBIFLY MET'MAP TEAM :

Programming & Development : Alexandra Zaïnal
Original concept : Baudouin d'Aumeries
Technical & hardware support : Manuel Goepfert
Assistance : Marc-Olivier Méhu




SOURCES & CREDITS :

   NOAA       Earth
Advisory